CDT,Max TemperatureF,Mean TemperatureF,Min TemperatureF,Max Dew PointF,MeanDew PointF,Min DewpointF,Max Humidity, Mean Humidity, Min Humidity, Max Sea Level PressureIn, Mean Sea Level PressureIn, Min Sea Level PressureIn, Max VisibilityMiles, Mean VisibilityMiles, Min VisibilityMiles, Max Wind SpeedMPH, Mean Wind SpeedMPH, Max Gust SpeedMPH,PrecipitationIn, CloudCover, Events, WindDirDegrees
2012-10-1,69,54,38,51,42,29,89,56,26,30.16,30.09,29.98,10,10,10,24,11,31,0.00,1,Thunderstorm,346
2012-10-2,78,54,31,36,31,27,92,50,16,30.11,29.96,29.83,10,10,7,16,7,21,0.00,0,,212
2012-10-3,89,70,49,45,38,32,63,40,16,30.14,29.83,29.69,10,10,2,28,10,39,0.00,0,Thunderstorm,173
2012-10-4,54,46,36,38,30,27,74,57,35,30.35,30.28,30.14,10,10,10,22,14,32,0.00,1,Thunderstorm,352
2012-10-5,43,36,29,36,32,25,89,78,63,30.39,30.34,30.29,10,10,4,9,3,,0.04,6,Rain,330
2012-10-6,40,35,30,36,32,25,96,87,55,30.41,30.36,30.31,10,9,2,10,6,,0.01,5,Rain-Snow,308
2012-10-7,55,38,21,34,27,19,96,70,32,30.33,30.17,30.01,10,10,10,16,6,24,0.00,0,,249
2012-10-8,74,52,30,33,25,19,82,44,13,30.00,29.88,29.78,10,10,7,13,5,18,0.00,0,,263
2012-10-9,56,44,30,40,30,21,86,57,27,30.20,30.01,29.83,10,10,5,22,8,29,0.00,1,,344
2012-10-10,67,45,23,34,29,20,89,58,28,30.21,30.12,29.99,10,10,10,21,7,26,0.00,0,,219
2012-10-11,58,48,37,36,31,24,79,55,40,30.33,30.10,29.94,10,10,10,23,10,29,0.00,0,,54
2012-10-12,49,38,27,43,30,23,87,68,50,30.33,30.18,29.92,10,10,10,16,8,22,0.00,4,Thunderstorm,127
2012-10-13,80,64,48,52,46,31,97,63,17,29.86,29.73,29.62,10,8,1,21,8,26,0.01,4,Rain-Thunderstorm,209
2012-10-14,75,60,43,39,34,32,64,40,21,30.06,29.99,29.79,10,10,5,24,15,32,0.00,2,,313
2012-10-15,82,58,35,41,34,31,82,48,16,30.04,29.90,29.74,10,10,5,14,6,21,0.00,0,,249
2012-10-16,80,62,45,43,37,34,71,41,20,29.75,29.61,29.41,10,10,10,23,7,29,0.00,0,,259
2012-10-17,72,57,40,48,29,16,74,38,20,29.79,29.66,29.44,10,10,5,37,19,50,0.00,3,Rain,311
2012-10-18,57,49,41,26,22,15,44,33,26,29.88,29.80,29.77,10,8,2,48,26,60,0.00,2,,310
2012-10-19,64,50,37,25,17,2,53,31,9,29.93,29.86,29.78,10,10,3,26,16,36,0.00,0,,317
2012-10-20,83,56,28,33,24,15,68,37,13,29.78,29.69,29.61,10,9,3,12,5,18,0.00,0,,164
2012-10-21,76,55,35,42,34,29,80,48,23,29.83,29.73,29.65,10,10,5,14,6,21,0.00,0,,44
2012-10-22,57,52,48,48,45,42,95,77,65,29.91,29.85,29.82,10,9,2,13,9,,0.00,7,,27
2012-10-23,65,54,41,52,49,41,97,85,60,29.81,29.73,29.69,10,5,0,9,4,,0.00,5,Fog,137
2012-10-24,56,48,39,47,42,32,96,78,55,29.87,29.82,29.76,10,9,3,23,12,31,0.00,7,Rain,23
2012-10-25,42,36,30,35,30,26,94,81,61,30.38,30.15,29.89,10,8,1,22,16,32,0.19,4,Rain-Snow,349
2012-10-26,38,32,27,27,25,23,88,71,57,30.54,30.44,30.35,10,10,10,15,9,18,0.00,6,,319
2012-10-27,48,38,27,29,26,24,87,68,43,30.35,30.23,30.12,10,10,10,20,9,24,0.00,2,,177
2012-10-28,54,36,19,32,27,17,93,69,40,30.20,30.13,30.05,10,10,7,22,6,24,0.00,5,,146
2012-10-29,73,50,28,38,32,25,87,54,25,30.08,30.03,29.98,10,10,10,16,7,21,0.00,1,,175
2012-10-30,67,50,32,38,34,30,92,61,31,30.03,30.00,29.95,10,10,10,8,4,,0.00,0,,48
2012-10-31,71,50,30,39,34,28,93,64,26,30.06,30.02,29.97,10,10,5,8,3,,0.00,0,,280